createdAt,value
2019-05-05T00:00:14.266Z,6.78
2019-05-05T00:03:04.267Z,6.78
2019-05-05T00:05:38.660Z,6.80
2019-05-05T00:08:10.499Z,6.81
2019-05-05T00:10:59.763Z,6.80
2019-05-05T00:13:46.589Z,6.79
2019-05-05T00:16:26.609Z,6.74
2019-05-05T00:18:58.242Z,6.73
2019-05-05T00:21:29.795Z,6.76
2019-05-05T00:24:01.376Z,6.78
2019-05-05T00:26:34.899Z,6.74
2019-05-05T00:29:06.267Z,6.73
2019-05-05T00:31:39.422Z,6.73
2019-05-05T00:34:11.001Z,6.73
2019-05-05T00:36:44.463Z,6.72
2019-05-05T00:39:15.830Z,6.71
2019-05-05T00:41:47.361Z,6.68
2019-05-05T00:44:18.941Z,6.65
2019-05-05T00:47:09.406Z,6.61
2019-05-05T00:49:46.432Z,6.57
2019-05-05T00:52:16.688Z,6.53
2019-05-05T00:54:48.286Z,6.55
2019-05-05T00:57:19.977Z,6.57
2019-05-05T00:59:51.630Z,6.58
2019-05-05T01:02:29.699Z,6.62
2019-05-05T01:05:10.387Z,6.64
2019-05-05T01:07:44.273Z,6.65
2019-05-05T01:10:15.502Z,6.68
2019-05-05T01:12:47.083Z,6.77
2019-05-05T01:15:20.505Z,6.76
2019-05-05T01:17:52.048Z,6.80
2019-05-05T01:20:25.004Z,6.76
2019-05-05T01:22:56.678Z,6.73
2019-05-05T01:25:28.262Z,6.71
2019-05-05T01:27:59.854Z,6.69
2019-05-05T01:30:34.980Z,6.67
2019-05-05T01:33:25.037Z,6.62
2019-05-05T01:35:56.755Z,6.65
2019-05-05T01:38:50.147Z,6.63
2019-05-05T01:41:37.612Z,6.59
2019-05-05T01:44:09.196Z,6.56
2019-05-05T01:46:41.067Z,6.55
2019-05-05T01:49:14.543Z,6.53
2019-05-05T01:51:45.967Z,6.52
2019-05-05T01:54:17.535Z,6.53
2019-05-05T01:56:52.275Z,6.53
2019-05-05T01:59:24.950Z,6.48
2019-05-05T02:01:56.685Z,6.49
2019-05-05T02:04:28.335Z,6.42
2019-05-05T02:07:00.092Z,6.39
2019-05-05T02:09:31.642Z,6.39
2019-05-05T02:12:05.175Z,6.41
2019-05-05T02:14:36.578Z,6.40
2019-05-05T02:17:08.460Z,6.41
2019-05-05T02:19:40.310Z,6.37
2019-05-05T02:22:11.989Z,6.37
2019-05-05T02:24:44.387Z,6.35
2019-05-05T02:27:19.568Z,6.32
2019-05-05T02:30:08.992Z,6.31
2019-05-05T02:33:06.462Z,6.29
2019-05-05T02:35:38.136Z,6.26
2019-05-05T02:38:09.852Z,6.21
2019-05-05T02:40:41.833Z,6.22
2019-05-05T02:43:15.117Z,6.18
2019-05-05T02:46:15.223Z,6.19
2019-05-05T02:48:48.317Z,6.16
2019-05-05T02:51:25.498Z,6.15
2019-05-05T02:53:57.989Z,6.16
2019-05-05T02:56:35.781Z,6.13
2019-05-05T02:59:11.521Z,6.11
2019-05-05T03:02:07.715Z,6.14
2019-05-05T03:04:39.419Z,6.20
2019-05-05T03:07:13.847Z,6.22
2019-05-05T03:09:47.336Z,6.23
2019-05-05T03:12:21.515Z,6.21
2019-05-05T03:14:55.689Z,6.23
2019-05-05T03:17:28.150Z,6.29
2019-05-05T03:19:59.831Z,6.28
2019-05-05T03:22:33.991Z,6.27
2019-05-05T03:25:05.833Z,6.29
2019-05-05T03:27:39.074Z,6.29
2019-05-05T03:30:11.354Z,6.32
2019-05-05T03:32:45.522Z,6.29
2019-05-05T03:35:16.388Z,6.28
2019-05-05T03:37:48.360Z,6.28
2019-05-05T03:40:24.745Z,6.23
2019-05-05T03:43:05.053Z,6.23
2019-05-05T03:45:44.547Z,6.22
2019-05-05T03:48:16.371Z,6.19
2019-05-05T03:50:47.946Z,6.21
2019-05-05T03:53:19.727Z,6.24
2019-05-05T03:55:54.482Z,6.22
2019-05-05T03:58:26.359Z,6.23
2019-05-05T04:01:40.495Z,6.24
2019-05-05T04:04:37.820Z,6.21
2019-05-05T04:07:09.666Z,6.19
2019-05-05T04:09:41.439Z,6.16
2019-05-05T04:12:14.351Z,6.16
2019-05-05T04:14:47.181Z,6.12
2019-05-05T04:17:56.238Z,6.16
2019-05-05T04:20:53.460Z,6.15
2019-05-05T04:23:25.119Z,6.12
2019-05-05T04:25:56.683Z,6.13
2019-05-05T04:28:28.261Z,6.10
2019-05-05T04:30:59.846Z,6.15
2019-05-05T04:33:31.398Z,6.17
2019-05-05T04:36:03.868Z,6.16
2019-05-05T04:38:35.608Z,6.16
2019-05-05T04:41:07.473Z,6.17
2019-05-05T04:43:39.331Z,6.16
2019-05-05T04:46:10.939Z,6.16
2019-05-05T04:48:57.065Z,6.18
2019-05-05T04:51:44.826Z,6.21
2019-05-05T04:54:33.476Z,6.16
2019-05-05T04:57:05.139Z,6.10
2019-05-05T04:59:36.714Z,6.10
2019-05-05T05:02:18.283Z,6.10
2019-05-05T05:04:57.066Z,6.08
2019-05-05T05:07:28.923Z,6.05
2019-05-05T05:10:00.787Z,6.05
2019-05-05T05:12:34.170Z,6.03
2019-05-05T05:15:06.296Z,6.07
2019-05-05T05:17:46.538Z,6.11
2019-05-05T05:20:18.337Z,6.22
2019-05-05T05:22:49.896Z,6.32
2019-05-05T05:25:23.959Z,6.33
2019-05-05T05:27:55.236Z,6.40
2019-05-05T05:30:26.808Z,6.49
2019-05-05T05:32:58.389Z,6.53
2019-05-05T05:35:30.219Z,6.60
2019-05-05T05:38:01.807Z,6.67
2019-05-05T05:41:04.487Z,6.82
2019-05-05T05:43:57.932Z,6.93
2019-05-05T05:46:48.396Z,7.05
2019-05-05T05:49:24.343Z,7.11
2019-05-05T05:51:55.910Z,7.19
2019-05-05T05:54:27.501Z,7.27
2019-05-05T05:56:59.069Z,7.30
2019-05-05T05:59:31.608Z,7.23
2019-05-05T06:02:09.793Z,7.20
2019-05-05T06:04:37.047Z,7.31
2019-05-05T06:07:08.963Z,7.47
2019-05-05T06:09:40.505Z,7.54
2019-05-05T06:12:14.008Z,7.74
2019-05-05T06:14:45.497Z,7.79
2019-05-05T06:17:17.101Z,7.78
2019-05-05T06:19:48.640Z,7.76
2019-05-05T06:22:28.527Z,7.70
2019-05-05T06:24:54.092Z,7.71
2019-05-05T06:27:25.973Z,7.63
2019-05-05T06:29:57.517Z,7.55
2019-05-05T06:32:29.121Z,7.54
2019-05-05T06:35:00.685Z,7.72
2019-05-05T06:37:34.218Z,7.49
2019-05-05T06:40:08.872Z,7.48
2019-05-05T06:42:51.678Z,7.60
2019-05-05T06:45:30.478Z,7.67
2019-05-05T06:48:04.187Z,7.45
2019-05-05T06:50:35.289Z,7.36
2019-05-05T06:53:07.035Z,7.31
2019-05-05T06:55:38.578Z,7.47
2019-05-05T06:58:10.152Z,7.61
2019-05-05T07:00:43.952Z,7.88
2019-05-05T07:03:16.170Z,8.16
2019-05-05T07:05:47.750Z,8.13
2019-05-05T07:08:19.386Z,8.23
2019-05-05T07:10:50.955Z,8.29
2019-05-05T07:13:24.393Z,8.36
2019-05-05T07:15:55.800Z,8.40
2019-05-05T07:18:27.398Z,8.30
2019-05-05T07:20:58.987Z,8.17
2019-05-05T07:23:30.616Z,8.04
2019-05-05T07:26:04.199Z,7.95
2019-05-05T07:28:35.465Z,8.11
2019-05-05T07:31:07.668Z,8.13
2019-05-05T07:33:39.307Z,8.20
2019-05-05T07:36:44.315Z,8.34
2019-05-05T07:39:15.295Z,8.46
2019-05-05T07:41:46.885Z,8.61
2019-05-05T07:44:28.418Z,8.34
2019-05-05T07:46:51.875Z,8.47
2019-05-05T07:49:25.336Z,8.56
2019-05-05T07:51:58.468Z,8.45
2019-05-05T07:54:31.491Z,8.58
2019-05-05T07:57:04.186Z,8.78
2019-05-05T07:59:35.831Z,8.76
2019-05-05T08:02:07.403Z,8.95
2019-05-05T08:04:39.027Z,9.16
2019-05-05T08:07:10.785Z,9.24
2019-05-05T08:09:44.397Z,9.18
2019-05-05T08:12:15.691Z,9.12
2019-05-05T08:14:47.400Z,9.23
2019-05-05T08:17:40.401Z,9.31
2019-05-05T08:20:25.236Z,9.42
2019-05-05T08:22:56.962Z,9.57
2019-05-05T08:25:50.776Z,9.60
2019-05-05T08:28:30.683Z,9.69
2019-05-05T08:31:11.425Z,9.50
2019-05-05T08:33:44.187Z,9.58
2019-05-05T08:36:17.081Z,9.38
2019-05-05T08:38:48.729Z,9.45
2019-05-05T08:41:20.394Z,9.50
2019-05-05T08:43:54.167Z,9.75
2019-05-05T08:46:25.293Z,9.73
2019-05-05T08:48:56.918Z,9.73
2019-05-05T08:51:28.529Z,9.92
2019-05-05T08:54:00.149Z,10.02
2019-05-05T08:56:31.783Z,10.06
2019-05-05T08:59:03.722Z,9.91
2019-05-05T09:01:35.462Z,9.84
2019-05-05T09:04:07.064Z,9.58
2019-05-05T09:06:38.633Z,9.74
2019-05-05T09:09:10.657Z,9.71
2019-05-05T09:11:43.804Z,9.61
2019-05-05T09:14:15.534Z,9.82
2019-05-05T09:16:47.149Z,9.94
2019-05-05T09:19:20.195Z,10.26
2019-05-05T09:21:54.001Z,10.20
2019-05-05T09:24:30.835Z,10.53
2019-05-05T09:27:24.517Z,10.86
2019-05-05T09:29:55.852Z,11.08
2019-05-05T09:32:27.472Z,11.37
2019-05-05T09:34:59.341Z,11.12
2019-05-05T09:37:30.955Z,11.16
2019-05-05T09:40:04.536Z,11.08
2019-05-05T09:42:37.054Z,11.07
2019-05-05T09:45:09.738Z,11.45
2019-05-05T09:47:41.367Z,11.55
2019-05-05T09:50:14.354Z,12.21
2019-05-05T09:52:46.174Z,12.32
2019-05-05T09:55:17.802Z,11.92
2019-05-05T09:57:49.427Z,12.20
2019-05-05T10:00:21.507Z,12.75
2019-05-05T10:02:54.428Z,12.72
2019-05-05T10:05:26.227Z,12.27
2019-05-05T10:07:59.508Z,11.62
2019-05-05T10:10:31.078Z,11.34
2019-05-05T10:13:04.178Z,11.33
2019-05-05T10:15:35.958Z,11.19
2019-05-05T10:18:07.604Z,10.96
2019-05-05T10:20:39.204Z,11.19
2019-05-05T10:23:10.841Z,11.43
2019-05-05T10:25:48.341Z,11.80
2019-05-05T10:28:21.135Z,11.72
2019-05-05T10:30:53.880Z,11.54
2019-05-05T10:33:25.647Z,11.89
2019-05-05T10:35:57.254Z,12.39
2019-05-05T10:38:29.092Z,12.72
2019-05-05T10:41:00.741Z,12.58
2019-05-05T10:43:34.233Z,12.51
2019-05-05T10:46:05.709Z,12.42
2019-05-05T10:48:37.340Z,12.26
2019-05-05T10:51:08.950Z,12.07
2019-05-05T10:53:40.559Z,12.07
2019-05-05T10:56:13.834Z,12.18
2019-05-05T10:58:45.546Z,12.17
2019-05-05T11:01:17.140Z,12.27
2019-05-05T11:03:48.938Z,12.22
2019-05-05T11:06:20.547Z,12.10
2019-05-05T11:08:53.996Z,12.06
2019-05-05T11:11:25.480Z,12.05
2019-05-05T11:13:57.126Z,11.80
2019-05-05T11:16:28.695Z,11.79
2019-05-05T11:19:00.357Z,11.72
2019-05-05T11:21:34.077Z,11.61
2019-05-05T11:24:05.284Z,11.20
2019-05-05T11:26:36.894Z,11.01
2019-05-05T11:29:08.518Z,10.93
2019-05-05T11:31:40.272Z,10.87
2019-05-05T11:34:16.402Z,10.97
2019-05-05T11:37:16.729Z,10.99
2019-05-05T11:39:48.315Z,11.12
2019-05-05T11:42:19.912Z,11.23
2019-05-05T11:44:53.370Z,11.29
2019-05-05T11:47:24.950Z,11.17
2019-05-05T11:49:56.838Z,11.24
2019-05-05T11:52:28.477Z,11.38
2019-05-05T11:55:11.293Z,11.61
2019-05-05T11:57:34.579Z,11.69
2019-05-05T12:00:07.858Z,11.68
2019-05-05T12:02:39.527Z,11.44
2019-05-05T12:05:11.423Z,11.30
2019-05-05T12:07:44.519Z,11.39
2019-05-05T12:10:43.837Z,11.43
2019-05-05T12:13:15.282Z,11.19
2019-05-05T12:15:49.213Z,11.06
2019-05-05T12:18:20.832Z,10.92
2019-05-05T12:20:54.378Z,11.03
2019-05-05T12:23:26.344Z,11.10
2019-05-05T12:26:17.311Z,11.21
2019-05-05T12:28:57.864Z,11.38
2019-05-05T12:31:30.260Z,11.59
2019-05-05T12:34:03.989Z,11.78
2019-05-05T12:36:47.654Z,11.88
2019-05-05T12:39:19.253Z,12.08
2019-05-05T12:41:50.856Z,12.31
2019-05-05T12:44:30.461Z,12.45
2019-05-05T12:47:10.867Z,12.42
2019-05-05T12:49:43.990Z,12.50
2019-05-05T12:52:17.327Z,12.56
2019-05-05T12:54:48.968Z,12.68
2019-05-05T12:57:20.567Z,12.76
2019-05-05T12:59:53.682Z,12.80
2019-05-05T13:02:25.489Z,12.81
2019-05-05T13:04:57.416Z,12.82
2019-05-05T13:07:28.991Z,12.90
2019-05-05T13:10:00.711Z,13.00
2019-05-05T13:12:34.412Z,13.01
2019-05-05T13:15:07.187Z,13.09
2019-05-05T13:17:39.780Z,13.20
2019-05-05T13:20:38.620Z,13.39
2019-05-05T13:23:41.211Z,13.77
2019-05-05T13:26:21.285Z,14.03
2019-05-05T13:28:54.296Z,14.13
2019-05-05T13:31:25.966Z,13.99
2019-05-05T13:33:57.558Z,13.85
2019-05-05T13:36:29.195Z,13.46
2019-05-05T13:39:00.926Z,12.99
2019-05-05T13:41:34.203Z,12.79
2019-05-05T13:44:10.307Z,12.81
2019-05-05T13:46:44.183Z,12.86
2019-05-05T13:49:24.082Z,12.95
2019-05-05T13:51:55.806Z,12.90
2019-05-05T13:54:27.418Z,13.11
2019-05-05T13:56:59.095Z,13.46
2019-05-05T13:59:33.766Z,13.79
2019-05-05T14:02:05.512Z,13.84
2019-05-05T14:04:39.089Z,13.77
2019-05-05T14:07:10.800Z,13.35
2019-05-05T14:09:44.179Z,13.22
2019-05-05T14:12:15.876Z,13.24
2019-05-05T14:14:47.562Z,13.25
2019-05-05T14:17:19.140Z,13.16
2019-05-05T14:20:04.509Z,13.08
2019-05-05T14:22:24.354Z,13.03
2019-05-05T14:25:01.798Z,12.85
2019-05-05T14:27:33.510Z,12.77
2019-05-05T14:30:18.402Z,12.68
2019-05-05T14:32:50.109Z,12.41
2019-05-05T14:35:30.719Z,12.42
2019-05-05T14:38:05.852Z,12.45
2019-05-05T14:40:37.449Z,12.52
2019-05-05T14:43:10.391Z,12.54
2019-05-05T14:45:44.082Z,12.60
2019-05-05T14:48:15.565Z,12.48
2019-05-05T14:50:47.168Z,12.45
2019-05-05T14:53:18.794Z,12.35
2019-05-05T14:55:50.674Z,12.24
2019-05-05T14:58:22.391Z,12.28
2019-05-05T15:00:54.008Z,12.23
2019-05-05T15:03:26.678Z,12.28
2019-05-05T15:06:12.184Z,12.21
2019-05-05T15:09:13.858Z,12.17
2019-05-05T15:12:07.496Z,12.14
2019-05-05T15:14:39.109Z,12.11
2019-05-05T15:17:10.723Z,11.96
2019-05-05T15:19:43.610Z,11.94
2019-05-05T15:22:15.426Z,11.85
2019-05-05T15:24:47.046Z,11.90
2019-05-05T15:27:18.665Z,12.11
2019-05-05T15:29:50.274Z,12.31
2019-05-05T15:32:23.817Z,12.45
2019-05-05T15:34:55.261Z,12.55
2019-05-05T15:37:26.838Z,12.72
2019-05-05T15:39:58.450Z,12.90
2019-05-05T15:42:30.039Z,13.03
2019-05-05T15:45:04.013Z,13.02
2019-05-05T15:47:36.912Z,13.00
2019-05-05T15:50:09.570Z,12.99
2019-05-05T15:52:41.212Z,12.91
2019-05-05T15:55:14.040Z,12.82
2019-05-05T15:57:46.896Z,12.84
2019-05-05T16:00:18.795Z,12.91
2019-05-05T16:02:50.448Z,12.97
2019-05-05T16:05:24.146Z,13.06
2019-05-05T16:07:55.367Z,13.09
2019-05-05T16:10:27.941Z,13.18
2019-05-05T16:12:59.546Z,13.12
2019-05-05T16:15:50.014Z,13.20
2019-05-05T16:18:30.084Z,13.20
2019-05-05T16:21:18.366Z,13.24
2019-05-05T16:23:54.383Z,13.18
2019-05-05T16:26:27.080Z,13.02
2019-05-05T16:28:58.655Z,13.06
2019-05-05T16:31:30.242Z,13.00
2019-05-05T16:34:03.692Z,12.81
2019-05-05T16:36:36.405Z,12.74
2019-05-05T16:39:09.162Z,12.74
2019-05-05T16:41:43.393Z,12.87
2019-05-05T16:44:15.828Z,12.94
2019-05-05T16:46:47.592Z,12.94
2019-05-05T16:49:19.208Z,12.92
2019-05-05T16:52:04.050Z,12.88
2019-05-05T16:54:43.703Z,12.68
2019-05-05T16:57:15.337Z,12.53
2019-05-05T16:59:46.977Z,12.48
2019-05-05T17:02:18.608Z,12.43
2019-05-05T17:04:50.247Z,12.45
2019-05-05T17:07:23.642Z,12.44
2019-05-05T17:09:55.196Z,12.47
2019-05-05T17:12:26.814Z,12.39
2019-05-05T17:15:29.312Z,12.40
2019-05-05T17:18:33.050Z,12.34
2019-05-05T17:21:01.768Z,12.20
2019-05-05T17:23:34.189Z,12.09
2019-05-05T17:26:05.800Z,11.96
2019-05-05T17:28:37.413Z,11.91
2019-05-05T17:31:09.034Z,11.89
2019-05-05T17:33:40.648Z,11.79
2019-05-05T17:36:13.965Z,11.75
2019-05-05T17:38:45.676Z,11.66
2019-05-05T17:41:44.381Z,11.45
2019-05-05T17:44:33.693Z,11.40
2019-05-05T17:47:13.912Z,11.40
2019-05-05T17:49:58.024Z,11.41
2019-05-05T17:52:37.511Z,11.45
2019-05-05T17:55:28.908Z,11.48
2019-05-05T17:58:02.663Z,11.43
2019-05-05T18:00:37.885Z,11.43
2019-05-05T18:03:09.504Z,11.37
2019-05-05T18:05:59.083Z,11.32
2019-05-05T18:08:40.918Z,11.30
2019-05-05T18:11:19.442Z,11.32
2019-05-05T18:13:55.515Z,11.30
2019-05-05T18:16:27.172Z,11.22
2019-05-05T18:18:58.833Z,11.17
2019-05-05T18:21:32.218Z,11.12
2019-05-05T18:24:03.836Z,11.12
2019-05-05T18:26:35.543Z,11.09
2019-05-05T18:29:07.220Z,11.06
2019-05-05T18:31:38.876Z,11.02
2019-05-05T18:34:10.468Z,10.92
2019-05-05T18:36:44.391Z,10.89
2019-05-05T18:39:15.382Z,10.81
2019-05-05T18:41:53.019Z,10.76
2019-05-05T18:44:31.227Z,10.64
2019-05-05T18:47:17.566Z,10.52
2019-05-05T18:49:46.837Z,10.40
2019-05-05T18:52:18.429Z,10.29
2019-05-05T18:54:50.067Z,10.22
2019-05-05T18:57:21.697Z,10.14
2019-05-05T18:59:54.185Z,10.11
2019-05-05T19:02:53.956Z,10.00
2019-05-05T19:05:50.444Z,9.87
2019-05-05T19:08:24.908Z,9.75
2019-05-05T19:10:57.481Z,9.68
2019-05-05T19:13:29.126Z,9.60
2019-05-05T19:16:00.783Z,9.61
2019-05-05T19:18:34.009Z,9.49
2019-05-05T19:21:24.950Z,9.42
2019-05-05T19:23:56.622Z,9.31
2019-05-05T19:26:28.331Z,9.17
2019-05-05T19:29:02.408Z,9.07
2019-05-05T19:31:36.294Z,9.05
2019-05-05T19:34:06.702Z,8.96
2019-05-05T19:36:38.297Z,8.90
2019-05-05T19:39:10.040Z,8.86
2019-05-05T19:41:46.606Z,8.79
2019-05-05T19:44:16.087Z,8.75
2019-05-05T19:46:54.814Z,8.79
2019-05-05T19:49:26.514Z,8.74
2019-05-05T19:51:58.092Z,8.68
2019-05-05T19:54:29.703Z,8.64
2019-05-05T19:57:03.820Z,8.58
2019-05-05T19:59:35.950Z,8.46
2019-05-05T20:02:08.433Z,8.35
2019-05-05T20:04:40.072Z,8.32
2019-05-05T20:07:13.807Z,8.28
2019-05-05T20:09:44.992Z,8.20
2019-05-05T20:12:16.549Z,8.18
2019-05-05T20:14:48.153Z,8.22
2019-05-05T20:17:25.304Z,8.22
2019-05-05T20:19:56.902Z,8.21
2019-05-05T20:22:28.502Z,8.16
2019-05-05T20:25:00.137Z,8.15
2019-05-05T20:27:31.750Z,8.06
2019-05-05T20:30:06.401Z,7.89
2019-05-05T20:32:46.192Z,7.74
2019-05-05T20:35:39.687Z,7.58
2019-05-05T20:38:28.758Z,7.51
2019-05-05T20:41:11.289Z,7.45
2019-05-05T20:43:44.853Z,7.44
2019-05-05T20:46:16.156Z,7.43
2019-05-05T20:48:47.718Z,7.43
2019-05-05T20:51:19.427Z,7.38
2019-05-05T20:53:50.986Z,7.37
2019-05-05T20:56:22.636Z,7.35
2019-05-05T20:58:54.986Z,7.34
2019-05-05T21:01:26.702Z,7.26
2019-05-05T21:03:58.303Z,7.18
2019-05-05T21:06:29.996Z,7.12
2019-05-05T21:09:01.551Z,7.07
2019-05-05T21:11:34.789Z,6.96
2019-05-05T21:14:06.478Z,6.83
2019-05-05T21:16:38.159Z,6.70
2019-05-05T21:19:09.715Z,6.71
2019-05-05T21:21:44.639Z,6.63
2019-05-05T21:24:17.448Z,6.67
2019-05-05T21:27:00.155Z,6.67
2019-05-05T21:29:39.680Z,6.55
2019-05-05T21:32:05.018Z,6.43
2019-05-05T21:34:36.646Z,6.39
2019-05-05T21:37:08.219Z,6.39
2019-05-05T21:39:40.140Z,6.32
2019-05-05T21:42:13.927Z,6.29
2019-05-05T21:44:45.335Z,6.27
2019-05-05T21:47:16.928Z,6.31
2019-05-05T21:49:48.488Z,6.30
2019-05-05T21:52:38.987Z,6.22
2019-05-05T21:55:35.352Z,6.24
2019-05-05T21:58:25.360Z,6.18
2019-05-05T22:01:08.262Z,6.11
2019-05-05T22:03:40.256Z,6.06
2019-05-05T22:06:11.800Z,6.04
2019-05-05T22:08:43.411Z,5.93
2019-05-05T22:11:15.329Z,5.89
2019-05-05T22:13:47.223Z,5.82
2019-05-05T22:16:18.795Z,5.69
2019-05-05T22:18:50.873Z,5.60
2019-05-05T22:21:43.584Z,5.60
2019-05-05T22:24:16.384Z,5.48
2019-05-05T22:26:48.252Z,5.48
2019-05-05T22:29:19.890Z,5.46
2019-05-05T22:31:51.490Z,5.45
2019-05-05T22:34:24.128Z,5.46
2019-05-05T22:36:56.113Z,5.46
2019-05-05T22:39:27.958Z,5.35
2019-05-05T22:41:59.507Z,5.26
2019-05-05T22:44:33.701Z,5.19
2019-05-05T22:47:05.009Z,5.16
2019-05-05T22:49:36.578Z,5.10
2019-05-05T22:52:08.225Z,5.02
2019-05-05T22:54:39.784Z,4.98
2019-05-05T22:57:13.889Z,4.97
2019-05-05T22:59:44.915Z,4.98
2019-05-05T23:02:18.141Z,5.00
2019-05-05T23:04:58.740Z,4.96
2019-05-05T23:07:32.045Z,5.01
2019-05-05T23:10:04.587Z,5.01
2019-05-05T23:12:36.725Z,5.06
2019-05-05T23:15:09.255Z,4.98
2019-05-05T23:17:54.307Z,4.96
2019-05-05T23:21:11.424Z,4.92
2019-05-05T23:24:20.307Z,4.85
2019-05-05T23:26:54.547Z,4.77
2019-05-05T23:29:26.746Z,4.65
2019-05-05T23:31:58.554Z,4.62
2019-05-05T23:34:30.396Z,4.60
2019-05-05T23:37:04.224Z,4.60
2019-05-05T23:39:35.778Z,4.53
2019-05-05T23:42:07.600Z,4.52
2019-05-05T23:44:39.457Z,4.45
2019-05-05T23:47:11.297Z,4.39
2019-05-05T23:49:44.005Z,4.45
2019-05-05T23:52:15.926Z,4.49
2019-05-05T23:54:47.801Z,4.50
2019-05-05T23:57:19.607Z,4.49
2019-05-05T23:59:53.308Z,4.35
